This is the latest recevied weather packets stored in our database for station/object KD8DLP-13. If no packets are shown the sender has not sent any weather packets the latest 10 day(s).
| Time | Temp. | Humidity | Pressure | Rain* | Wind** | Luminosity | Snow |
|---|---|---|---|---|---|---|---|
| 1778085464 | 15.56° C | 36% | 1014.1 hPa | 0 mm | - | 236 W/m² | - |
| 1778085158 | 15.56° C | 35% | 1014.2 hPa | 0 mm | - | 707 W/m² | - |
| 1778084855 | 15° C | 37% | 1014.3 hPa | 0 mm | - | 497 W/m² | - |
| 1778084553 | 15° C | 36% | 1014.3 hPa | 0 mm | - | 600 W/m² | - |
| 1778084250 | 14.44° C | 37% | 1014.4 hPa | 0 mm | - | 540 W/m² | - |
| 1778083947 | 15° C | 39% | 1014.4 hPa | 0 mm | - | 327 W/m² | - |
| 1778083644 | 13.33° C | 40% | 1014.2 hPa | 0 mm | - | 768 W/m² | - |
| 1778083341 | 13.89° C | 39% | 1014.2 hPa | 0 mm | - | 508 W/m² | - |
| 1778083040 | 13.33° C | 40% | 1014.5 hPa | 0 mm | - | 239 W/m² | - |
| 1778082736 | 13.89° C | 39% | 1014.5 hPa | 0 mm | - | 346 W/m² | - |
| 1778081604 | 13.89° C | 38% | 1014.2 hPa | 0 mm | - | 639 W/m² | - |
| 1778081301 | 15° C | 38% | 1014.6 hPa | 0 mm | - | 343 W/m² | - |
| 1778080998 | 15° C | 41% | 1014.4 hPa | 0 mm | - | 526 W/m² | - |
| 1778080697 | 15° C | 39% | 1014.6 hPa | 0 mm | - | 579 W/m² | - |
| 1778080393 | 14.44° C | 40% | 1014.5 hPa | 0 mm | - | 557 W/m² | - |
| 1778080089 | 13.33° C | 41% | 1014.4 hPa | 0 mm | - | 618 W/m² | - |
| 1778079787 | 13.89° C | 41% | 1014.4 hPa | 0 mm | - | 637 W/m² | - |
| 1778079484 | 12.22° C | 46% | 1014.4 hPa | 0 mm | - | 562 W/m² | - |
| 1778079180 | 13.89° C | 40% | 1014.5 hPa | 0 mm | - | 517 W/m² | - |
| 1778078878 | 13.33° C | 43% | 1014.5 hPa | 0 mm | - | 580 W/m² | - |
| 1778078574 | 11.67° C | 44% | 1014.4 hPa | 0 mm | - | 539 W/m² | - |
| 1778078272 | 13.33° C | 43% | 1014.5 hPa | 0 mm | - | 512 W/m² | - |
| 1778077969 | 13.33° C | 43% | 1014.1 hPa | 0 mm | - | 508 W/m² | - |
| 1778077668 | 12.22° C | 48% | 1014.2 hPa | 0 mm | - | 481 W/m² | - |
| 1778077365 | 11.67° C | 48% | 1014.3 hPa | 0 mm | - | 456 W/m² | - |
* Rain latest hour (hover to see other rain measurements)
** Current wind speed in m/s (hover to see current wind gust speed)